sensor_id;sensor_type;location;lat;lon;timestamp;temperature;humidity
4647;DHT22;2336;47.822;7.564;2023-12-22T00:01:26;9.30;99.90
4647;DHT22;2336;47.822;7.564;2023-12-22T00:03:52;9.20;99.90
4647;DHT22;2336;47.822;7.564;2023-12-22T00:06:20;9.00;99.90
4647;DHT22;2336;47.822;7.564;2023-12-22T00:08:47;8.80;99.90
4647;DHT22;2336;47.822;7.564;2023-12-22T00:11:14;8.60;99.90
4647;DHT22;2336;47.822;7.564;2023-12-22T00:13:41;8.50;99.90
4647;DHT22;2336;47.822;7.564;2023-12-22T00:16:08;8.40;99.90
4647;DHT22;2336;47.822;7.564;2023-12-22T00:18:36;8.30;99.90
4647;DHT22;2336;47.822;7.564;2023-12-22T00:21:03;8.20;99.90
4647;DHT22;2336;47.822;7.564;2023-12-22T00:23:31;8.10;99.90
4647;DHT22;2336;47.822;7.564;2023-12-22T00:26:01;8.10;99.90
4647;DHT22;2336;47.822;7.564;2023-12-22T00:28:28;8.00;99.90
4647;DHT22;2336;47.822;7.564;2023-12-22T00:30:55;8.00;99.90
4647;DHT22;2336;47.822;7.564;2023-12-22T00:33:22;8.00;99.90
4647;DHT22;2336;47.822;7.564;2023-12-22T00:35:48;8.00;99.90
4647;DHT22;2336;47.822;7.564;2023-12-22T00:38:15;8.00;99.90
4647;DHT22;2336;47.822;7.564;2023-12-22T00:40:42;7.90;99.90
4647;DHT22;2336;47.822;7.564;2023-12-22T00:43:10;8.00;99.90
4647;DHT22;2336;47.822;7.564;2023-12-22T00:45:36;8.00;99.90
4647;DHT22;2336;47.822;7.564;2023-12-22T00:48:04;8.00;99.90
4647;DHT22;2336;47.822;7.564;2023-12-22T00:50:30;8.00;99.90
4647;DHT22;2336;47.822;7.564;2023-12-22T00:52:57;7.90;99.90
4647;DHT22;2336;47.822;7.564;2023-12-22T00:55:24;7.90;99.90
4647;DHT22;2336;47.822;7.564;2023-12-22T00:57:52;7.90;99.90
4647;DHT22;2336;47.822;7.564;2023-12-22T01:00:19;7.80;99.90
4647;DHT22;2336;47.822;7.564;2023-12-22T01:02:46;7.80;99.90
4647;DHT22;2336;47.822;7.564;2023-12-22T01:05:13;7.80;99.90
4647;DHT22;2336;47.822;7.564;2023-12-22T01:07:39;7.80;99.90
4647;DHT22;2336;47.822;7.564;2023-12-22T01:10:07;7.70;99.90
4647;DHT22;2336;47.822;7.564;2023-12-22T01:12:34;7.60;99.90
4647;DHT22;2336;47.822;7.564;2023-12-22T01:15:03;7.60;99.90
4647;DHT22;2336;47.822;7.564;2023-12-22T01:17:30;7.50;99.90
4647;DHT22;2336;47.822;7.564;2023-12-22T01:19:57;7.50;99.90
4647;DHT22;2336;47.822;7.564;2023-12-22T01:22:24;7.40;99.90
4647;DHT22;2336;47.822;7.564;2023-12-22T01:24:50;7.40;99.90
4647;DHT22;2336;47.822;7.564;2023-12-22T01:27:17;7.40;99.90
4647;DHT22;2336;47.822;7.564;2023-12-22T01:29:45;7.30;99.90
4647;DHT22;2336;47.822;7.564;2023-12-22T01:32:13;7.40;99.90
4647;DHT22;2336;47.822;7.564;2023-12-22T01:34:40;7.40;99.90
4647;DHT22;2336;47.822;7.564;2023-12-22T01:37:07;7.40;99.90
4647;DHT22;2336;47.822;7.564;2023-12-22T01:39:33;7.50;99.90
4647;DHT22;2336;47.822;7.564;2023-12-22T01:42:00;7.50;99.90
4647;DHT22;2336;47.822;7.564;2023-12-22T01:44:27;7.60;99.90
4647;DHT22;2336;47.822;7.564;2023-12-22T01:46:54;7.60;99.90
4647;DHT22;2336;47.822;7.564;2023-12-22T01:49:22;7.60;99.90
4647;DHT22;2336;47.822;7.564;2023-12-22T01:51:51;7.70;99.90
4647;DHT22;2336;47.822;7.564;2023-12-22T01:54:19;7.70;99.90
4647;DHT22;2336;47.822;7.564;2023-12-22T01:56:46;7.70;99.90
4647;DHT22;2336;47.822;7.564;2023-12-22T01:59:13;7.70;99.90
4647;DHT22;2336;47.822;7.564;2023-12-22T02:01:40;7.70;99.90
4647;DHT22;2336;47.822;7.564;2023-12-22T02:04:09;7.80;99.90
4647;DHT22;2336;47.822;7.564;2023-12-22T02:06:38;7.80;99.90
4647;DHT22;2336;47.822;7.564;2023-12-22T02:09:05;7.80;99.90
4647;DHT22;2336;47.822;7.564;2023-12-22T02:11:31;7.90;99.90
4647;DHT22;2336;47.822;7.564;2023-12-22T02:13:58;8.00;99.90
4647;DHT22;2336;47.822;7.564;2023-12-22T02:16:32;8.10;99.90
4647;DHT22;2336;47.822;7.564;2023-12-22T02:19:08;8.20;99.90
4647;DHT22;2336;47.822;7.564;2023-12-22T02:22:03;8.20;99.90
4647;DHT22;2336;47.822;7.564;2023-12-22T02:24:31;8.20;99.90
4647;DHT22;2336;47.822;7.564;2023-12-22T02:27:03;8.20;99.90
4647;DHT22;2336;47.822;7.564;2023-12-22T02:29:32;8.30;99.90
4647;DHT22;2336;47.822;7.564;2023-12-22T02:32:05;8.30;99.90
4647;DHT22;2336;47.822;7.564;2023-12-22T02:34:35;8.40;99.90
4647;DHT22;2336;47.822;7.564;2023-12-22T02:37:05;8.40;99.90
4647;DHT22;2336;47.822;7.564;2023-12-22T02:39:42;8.50;99.90
4647;DHT22;2336;47.822;7.564;2023-12-22T02:42:10;8.50;99.90
4647;DHT22;2336;47.822;7.564;2023-12-22T02:44:39;8.40;99.90
4647;DHT22;2336;47.822;7.564;2023-12-22T02:47:06;8.40;99.90
4647;DHT22;2336;47.822;7.564;2023-12-22T02:49:33;8.40;99.90
4647;DHT22;2336;47.822;7.564;2023-12-22T02:51:59;8.40;99.90
4647;DHT22;2336;47.822;7.564;2023-12-22T02:54:26;8.40;99.90
4647;DHT22;2336;47.822;7.564;2023-12-22T02:56:56;8.40;99.90
4647;DHT22;2336;47.822;7.564;2023-12-22T02:59:24;8.30;99.90
4647;DHT22;2336;47.822;7.564;2023-12-22T03:01:53;8.20;99.90
4647;DHT22;2336;47.822;7.564;2023-12-22T03:04:19;8.20;99.90
4647;DHT22;2336;47.822;7.564;2023-12-22T03:06:46;8.10;99.90
4647;DHT22;2336;47.822;7.564;2023-12-22T03:09:13;8.00;99.90
4647;DHT22;2336;47.822;7.564;2023-12-22T03:11:40;7.80;99.90
4647;DHT22;2336;47.822;7.564;2023-12-22T03:14:08;7.80;99.90
4647;DHT22;2336;47.822;7.564;2023-12-22T03:16:35;7.80;99.90
4647;DHT22;2336;47.822;7.564;2023-12-22T03:19:02;7.70;99.90
4647;DHT22;2336;47.822;7.564;2023-12-22T03:21:29;7.70;99.90
4647;DHT22;2336;47.822;7.564;2023-12-22T03:23:56;7.60;99.90
4647;DHT22;2336;47.822;7.564;2023-12-22T03:26:22;7.60;99.90
4647;DHT22;2336;47.822;7.564;2023-12-22T03:28:49;7.60;99.90
4647;DHT22;2336;47.822;7.564;2023-12-22T03:31:17;7.50;99.90
4647;DHT22;2336;47.822;7.564;2023-12-22T03:33:44;7.50;99.90
4647;DHT22;2336;47.822;7.564;2023-12-22T03:36:11;7.50;99.90
4647;DHT22;2336;47.822;7.564;2023-12-22T03:38:38;7.60;99.90
4647;DHT22;2336;47.822;7.564;2023-12-22T03:41:04;7.50;99.90
4647;DHT22;2336;47.822;7.564;2023-12-22T03:43:31;7.50;99.90
4647;DHT22;2336;47.822;7.564;2023-12-22T03:45:58;7.50;99.90
4647;DHT22;2336;47.822;7.564;2023-12-22T03:48:26;7.50;99.90
4647;DHT22;2336;47.822;7.564;2023-12-22T03:50:53;7.50;99.90
4647;DHT22;2336;47.822;7.564;2023-12-22T03:53:20;7.50;99.90
4647;DHT22;2336;47.822;7.564;2023-12-22T03:55:47;7.50;99.90
4647;DHT22;2336;47.822;7.564;2023-12-22T03:58:13;7.50;99.90
4647;DHT22;2336;47.822;7.564;2023-12-22T04:00:40;7.40;99.90
4647;DHT22;2336;47.822;7.564;2023-12-22T04:03:07;7.40;99.90
4647;DHT22;2336;47.822;7.564;2023-12-22T04:05:35;7.40;99.90
4647;DHT22;2336;47.822;7.564;2023-12-22T04:08:02;7.40;99.90
4647;DHT22;2336;47.822;7.564;2023-12-22T04:10:29;7.40;99.90
4647;DHT22;2336;47.822;7.564;2023-12-22T04:12:56;7.50;99.90
4647;DHT22;2336;47.822;7.564;2023-12-22T04:15:23;7.50;99.90
4647;DHT22;2336;47.822;7.564;2023-12-22T04:17:50;7.50;99.90
4647;DHT22;2336;47.822;7.564;2023-12-22T04:20:16;7.60;99.90
4647;DHT22;2336;47.822;7.564;2023-12-22T04:22:45;7.60;99.90
4647;DHT22;2336;47.822;7.564;2023-12-22T04:25:11;7.50;99.90
4647;DHT22;2336;47.822;7.564;2023-12-22T04:27:38;7.60;99.90
4647;DHT22;2336;47.822;7.564;2023-12-22T04:30:06;7.60;99.90
4647;DHT22;2336;47.822;7.564;2023-12-22T04:32:33;7.60;99.90
4647;DHT22;2336;47.822;7.564;2023-12-22T04:35:00;7.60;99.90
4647;DHT22;2336;47.822;7.564;2023-12-22T04:37:27;7.70;99.90
4647;DHT22;2336;47.822;7.564;2023-12-22T04:39:55;7.70;99.90
4647;DHT22;2336;47.822;7.564;2023-12-22T04:42:22;7.70;99.90
4647;DHT22;2336;47.822;7.564;2023-12-22T04:44:51;7.80;99.90
4647;DHT22;2336;47.822;7.564;2023-12-22T04:47:17;7.80;99.90
4647;DHT22;2336;47.822;7.564;2023-12-22T04:49:45;7.80;99.90
4647;DHT22;2336;47.822;7.564;2023-12-22T04:52:12;7.80;99.90
4647;DHT22;2336;47.822;7.564;2023-12-22T04:54:39;7.80;99.90
4647;DHT22;2336;47.822;7.564;2023-12-22T04:57:07;7.90;99.90
4647;DHT22;2336;47.822;7.564;2023-12-22T04:59:34;7.90;99.90
4647;DHT22;2336;47.822;7.564;2023-12-22T05:02:01;7.90;99.90
4647;DHT22;2336;47.822;7.564;2023-12-22T05:04:28;7.90;99.90
4647;DHT22;2336;47.822;7.564;2023-12-22T05:06:53;7.90;99.90
4647;DHT22;2336;47.822;7.564;2023-12-22T05:09:21;7.90;99.90
4647;DHT22;2336;47.822;7.564;2023-12-22T05:11:49;7.90;99.90
4647;DHT22;2336;47.822;7.564;2023-12-22T05:14:18;7.90;99.90
4647;DHT22;2336;47.822;7.564;2023-12-22T05:16:44;7.90;99.90
4647;DHT22;2336;47.822;7.564;2023-12-22T05:19:11;7.90;99.90
4647;DHT22;2336;47.822;7.564;2023-12-22T05:21:38;7.90;99.90
4647;DHT22;2336;47.822;7.564;2023-12-22T05:24:05;7.90;99.90
4647;DHT22;2336;47.822;7.564;2023-12-22T05:26:32;7.90;99.90
4647;DHT22;2336;47.822;7.564;2023-12-22T05:28:59;7.90;99.90
4647;DHT22;2336;47.822;7.564;2023-12-22T05:31:27;7.90;99.90
4647;DHT22;2336;47.822;7.564;2023-12-22T05:33:54;7.90;99.90
4647;DHT22;2336;47.822;7.564;2023-12-22T05:36:21;8.00;99.90
4647;DHT22;2336;47.822;7.564;2023-12-22T05:38:47;8.00;99.90
4647;DHT22;2336;47.822;7.564;2023-12-22T05:41:14;8.00;99.90
4647;DHT22;2336;47.822;7.564;2023-12-22T05:43:41;8.00;99.90
4647;DHT22;2336;47.822;7.564;2023-12-22T05:46:08;8.00;99.90
4647;DHT22;2336;47.822;7.564;2023-12-22T05:48:37;7.90;99.90
4647;DHT22;2336;47.822;7.564;2023-12-22T05:51:04;8.00;99.90
4647;DHT22;2336;47.822;7.564;2023-12-22T05:53:33;8.00;99.90
4647;DHT22;2336;47.822;7.564;2023-12-22T05:55:59;7.90;99.90
4647;DHT22;2336;47.822;7.564;2023-12-22T05:58:26;7.80;99.90
4647;DHT22;2336;47.822;7.564;2023-12-22T06:00:53;7.80;99.90
4647;DHT22;2336;47.822;7.564;2023-12-22T06:03:20;7.80;99.90
4647;DHT22;2336;47.822;7.564;2023-12-22T06:05:48;7.80;99.90
4647;DHT22;2336;47.822;7.564;2023-12-22T06:08:15;7.70;99.90
4647;DHT22;2336;47.822;7.564;2023-12-22T06:10:41;7.70;99.90
4647;DHT22;2336;47.822;7.564;2023-12-22T06:13:08;7.80;99.90
4647;DHT22;2336;47.822;7.564;2023-12-22T06:15:35;7.70;99.90
4647;DHT22;2336;47.822;7.564;2023-12-22T06:18:02;7.70;99.90
4647;DHT22;2336;47.822;7.564;2023-12-22T06:20:29;7.80;99.90
4647;DHT22;2336;47.822;7.564;2023-12-22T06:22:57;7.80;99.90
4647;DHT22;2336;47.822;7.564;2023-12-22T06:25:24;7.80;99.90
4647;DHT22;2336;47.822;7.564;2023-12-22T06:27:50;7.80;99.90
4647;DHT22;2336;47.822;7.564;2023-12-22T06:30:17;7.80;99.90
4647;DHT22;2336;47.822;7.564;2023-12-22T06:32:44;7.80;99.90
4647;DHT22;2336;47.822;7.564;2023-12-22T06:35:11;7.80;99.90
4647;DHT22;2336;47.822;7.564;2023-12-22T06:37:37;7.70;99.90
4647;DHT22;2336;47.822;7.564;2023-12-22T06:40:07;7.70;99.90
4647;DHT22;2336;47.822;7.564;2023-12-22T06:42:34;7.70;99.90
4647;DHT22;2336;47.822;7.564;2023-12-22T06:45:00;7.70;99.90
4647;DHT22;2336;47.822;7.564;2023-12-22T06:47:28;7.70;99.90
4647;DHT22;2336;47.822;7.564;2023-12-22T06:49:54;7.70;99.90
4647;DHT22;2336;47.822;7.564;2023-12-22T06:52:21;7.60;99.90
4647;DHT22;2336;47.822;7.564;2023-12-22T06:54:48;7.70;99.90
4647;DHT22;2336;47.822;7.564;2023-12-22T06:57:16;7.70;99.90
4647;DHT22;2336;47.822;7.564;2023-12-22T06:59:43;7.70;99.90
4647;DHT22;2336;47.822;7.564;2023-12-22T07:02:09;7.60;99.90
4647;DHT22;2336;47.822;7.564;2023-12-22T07:04:59;7.60;99.90
4647;DHT22;2336;47.822;7.564;2023-12-22T07:07:32;7.60;99.90
4647;DHT22;2336;47.822;7.564;2023-12-22T07:09:59;7.60;99.90
4647;DHT22;2336;47.822;7.564;2023-12-22T07:12:27;7.60;99.90
4647;DHT22;2336;47.822;7.564;2023-12-22T07:14:54;7.60;99.90
4647;DHT22;2336;47.822;7.564;2023-12-22T07:17:21;7.60;99.90
4647;DHT22;2336;47.822;7.564;2023-12-22T07:19:48;7.60;99.90
4647;DHT22;2336;47.822;7.564;2023-12-22T07:22:17;7.60;99.90
4647;DHT22;2336;47.822;7.564;2023-12-22T07:24:44;7.60;99.90
4647;DHT22;2336;47.822;7.564;2023-12-22T07:27:11;7.60;99.90
4647;DHT22;2336;47.822;7.564;2023-12-22T07:29:39;7.60;99.90
4647;DHT22;2336;47.822;7.564;2023-12-22T07:32:06;7.60;99.90
4647;DHT22;2336;47.822;7.564;2023-12-22T07:34:33;7.60;99.90
4647;DHT22;2336;47.822;7.564;2023-12-22T07:37:00;7.60;99.90
4647;DHT22;2336;47.822;7.564;2023-12-22T07:39:26;7.70;99.90
4647;DHT22;2336;47.822;7.564;2023-12-22T07:41:53;7.70;99.90
4647;DHT22;2336;47.822;7.564;2023-12-22T07:44:20;7.70;99.90
4647;DHT22;2336;47.822;7.564;2023-12-22T07:46:57;7.70;99.90
4647;DHT22;2336;47.822;7.564;2023-12-22T07:49:25;7.70;99.90
4647;DHT22;2336;47.822;7.564;2023-12-22T07:51:52;7.70;99.90
4647;DHT22;2336;47.822;7.564;2023-12-22T07:54:19;7.70;99.90
4647;DHT22;2336;47.822;7.564;2023-12-22T07:56:46;7.70;99.90
4647;DHT22;2336;47.822;7.564;2023-12-22T07:59:13;7.70;99.90
4647;DHT22;2336;47.822;7.564;2023-12-22T08:01:40;7.80;99.90
4647;DHT22;2336;47.822;7.564;2023-12-22T08:04:08;7.80;99.90
4647;DHT22;2336;47.822;7.564;2023-12-22T08:06:35;7.80;99.90
4647;DHT22;2336;47.822;7.564;2023-12-22T08:09:02;7.80;99.90
4647;DHT22;2336;47.822;7.564;2023-12-22T08:11:29;7.80;99.90
4647;DHT22;2336;47.822;7.564;2023-12-22T08:13:55;7.90;99.90
4647;DHT22;2336;47.822;7.564;2023-12-22T08:16:22;7.90;99.90
4647;DHT22;2336;47.822;7.564;2023-12-22T08:18:49;7.90;99.90
4647;DHT22;2336;47.822;7.564;2023-12-22T08:21:17;7.90;99.90
4647;DHT22;2336;47.822;7.564;2023-12-22T08:23:44;7.90;99.90
4647;DHT22;2336;47.822;7.564;2023-12-22T08:26:11;7.90;99.90
4647;DHT22;2336;47.822;7.564;2023-12-22T08:28:40;8.00;99.90
4647;DHT22;2336;47.822;7.564;2023-12-22T08:31:07;8.00;99.90
4647;DHT22;2336;47.822;7.564;2023-12-22T08:33:34;8.10;99.90
4647;DHT22;2336;47.822;7.564;2023-12-22T08:36:01;8.10;99.90
4647;DHT22;2336;47.822;7.564;2023-12-22T08:38:29;8.00;99.90
4647;DHT22;2336;47.822;7.564;2023-12-22T08:40:56;8.00;99.90
4647;DHT22;2336;47.822;7.564;2023-12-22T08:43:22;8.10;99.90
4647;DHT22;2336;47.822;7.564;2023-12-22T08:45:50;8.10;99.90
4647;DHT22;2336;47.822;7.564;2023-12-22T08:48:16;8.00;99.90
4647;DHT22;2336;47.822;7.564;2023-12-22T08:50:43;8.10;99.90
4647;DHT22;2336;47.822;7.564;2023-12-22T08:53:11;8.10;99.90
4647;DHT22;2336;47.822;7.564;2023-12-22T08:55:39;8.10;99.90
4647;DHT22;2336;47.822;7.564;2023-12-22T08:58:06;8.10;99.90
4647;DHT22;2336;47.822;7.564;2023-12-22T09:00:32;8.20;99.90
4647;DHT22;2336;47.822;7.564;2023-12-22T09:02:59;8.20;99.90
4647;DHT22;2336;47.822;7.564;2023-12-22T09:05:26;8.30;99.90
4647;DHT22;2336;47.822;7.564;2023-12-22T09:07:53;8.20;99.90
4647;DHT22;2336;47.822;7.564;2023-12-22T09:10:20;8.20;99.90
4647;DHT22;2336;47.822;7.564;2023-12-22T09:12:48;8.30;99.90
4647;DHT22;2336;47.822;7.564;2023-12-22T09:15:15;8.20;99.90
4647;DHT22;2336;47.822;7.564;2023-12-22T09:17:42;8.30;99.90
4647;DHT22;2336;47.822;7.564;2023-12-22T09:20:10;8.30;99.90
4647;DHT22;2336;47.822;7.564;2023-12-22T09:22:37;8.20;99.90
4647;DHT22;2336;47.822;7.564;2023-12-22T09:25:04;8.30;99.90
4647;DHT22;2336;47.822;7.564;2023-12-22T09:27:31;8.20;99.90
4647;DHT22;2336;47.822;7.564;2023-12-22T09:29:59;8.30;99.90
4647;DHT22;2336;47.822;7.564;2023-12-22T09:32:26;8.30;99.90
4647;DHT22;2336;47.822;7.564;2023-12-22T09:34:53;8.30;99.90
4647;DHT22;2336;47.822;7.564;2023-12-22T09:37:20;8.30;99.90
4647;DHT22;2336;47.822;7.564;2023-12-22T09:39:47;8.30;99.90
4647;DHT22;2336;47.822;7.564;2023-12-22T09:42:14;8.30;99.90
4647;DHT22;2336;47.822;7.564;2023-12-22T09:44:42;8.40;99.90
4647;DHT22;2336;47.822;7.564;2023-12-22T09:47:11;8.40;99.90
4647;DHT22;2336;47.822;7.564;2023-12-22T09:49:39;8.40;99.90
4647;DHT22;2336;47.822;7.564;2023-12-22T09:52:07;8.30;99.90
4647;DHT22;2336;47.822;7.564;2023-12-22T09:54:36;8.30;99.90
4647;DHT22;2336;47.822;7.564;2023-12-22T09:57:04;8.30;99.90
4647;DHT22;2336;47.822;7.564;2023-12-22T09:59:32;8.40;99.90
4647;DHT22;2336;47.822;7.564;2023-12-22T10:02:00;8.40;99.90
4647;DHT22;2336;47.822;7.564;2023-12-22T10:04:30;8.40;99.90
4647;DHT22;2336;47.822;7.564;2023-12-22T10:06:58;8.40;99.90
4647;DHT22;2336;47.822;7.564;2023-12-22T10:09:29;8.40;99.90
4647;DHT22;2336;47.822;7.564;2023-12-22T10:11:56;8.40;99.90
4647;DHT22;2336;47.822;7.564;2023-12-22T10:14:23;8.40;99.90
4647;DHT22;2336;47.822;7.564;2023-12-22T10:16:52;8.50;99.90
4647;DHT22;2336;47.822;7.564;2023-12-22T10:19:19;8.50;99.90
4647;DHT22;2336;47.822;7.564;2023-12-22T10:21:48;8.50;99.90
4647;DHT22;2336;47.822;7.564;2023-12-22T10:24:37;8.50;99.90
4647;DHT22;2336;47.822;7.564;2023-12-22T10:27:04;8.50;99.90
4647;DHT22;2336;47.822;7.564;2023-12-22T10:29:31;8.60;99.90
4647;DHT22;2336;47.822;7.564;2023-12-22T10:32:00;8.50;99.90
4647;DHT22;2336;47.822;7.564;2023-12-22T10:34:28;8.50;99.90
4647;DHT22;2336;47.822;7.564;2023-12-22T10:36:56;8.60;99.90
4647;DHT22;2336;47.822;7.564;2023-12-22T10:39:23;8.60;99.90
4647;DHT22;2336;47.822;7.564;2023-12-22T10:41:53;8.60;99.90
4647;DHT22;2336;47.822;7.564;2023-12-22T10:44:20;8.60;99.90
4647;DHT22;2336;47.822;7.564;2023-12-22T10:46:47;8.50;99.90
4647;DHT22;2336;47.822;7.564;2023-12-22T10:49:14;8.60;99.90
4647;DHT22;2336;47.822;7.564;2023-12-22T10:51:41;8.60;99.90
4647;DHT22;2336;47.822;7.564;2023-12-22T10:54:09;8.60;99.90
4647;DHT22;2336;47.822;7.564;2023-12-22T10:56:36;8.60;99.90
4647;DHT22;2336;47.822;7.564;2023-12-22T10:59:03;8.60;99.90
4647;DHT22;2336;47.822;7.564;2023-12-22T11:01:30;8.70;99.90
4647;DHT22;2336;47.822;7.564;2023-12-22T11:04:02;8.70;99.90
4647;DHT22;2336;47.822;7.564;2023-12-22T11:06:30;8.70;99.90
4647;DHT22;2336;47.822;7.564;2023-12-22T11:09:00;8.70;99.90
4647;DHT22;2336;47.822;7.564;2023-12-22T11:11:34;8.80;99.90
4647;DHT22;2336;47.822;7.564;2023-12-22T11:14:01;8.90;99.90
4647;DHT22;2336;47.822;7.564;2023-12-22T11:16:29;8.90;99.90
4647;DHT22;2336;47.822;7.564;2023-12-22T11:18:57;8.90;99.90
4647;DHT22;2336;47.822;7.564;2023-12-22T11:21:25;8.90;99.90
4647;DHT22;2336;47.822;7.564;2023-12-22T11:23:53;8.90;99.90
4647;DHT22;2336;47.822;7.564;2023-12-22T11:26:21;9.00;99.90
4647;DHT22;2336;47.822;7.564;2023-12-22T11:28:50;9.00;99.90
4647;DHT22;2336;47.822;7.564;2023-12-22T11:31:18;9.00;99.90
4647;DHT22;2336;47.822;7.564;2023-12-22T11:33:46;8.90;99.90
4647;DHT22;2336;47.822;7.564;2023-12-22T11:36:14;9.00;99.90
4647;DHT22;2336;47.822;7.564;2023-12-22T11:38:42;9.00;99.90
4647;DHT22;2336;47.822;7.564;2023-12-22T11:41:11;9.00;99.90
4647;DHT22;2336;47.822;7.564;2023-12-22T11:43:40;9.10;99.90
4647;DHT22;2336;47.822;7.564;2023-12-22T11:46:09;9.10;99.90
4647;DHT22;2336;47.822;7.564;2023-12-22T11:48:35;9.10;99.90
4647;DHT22;2336;47.822;7.564;2023-12-22T11:51:12;9.20;99.90
4647;DHT22;2336;47.822;7.564;2023-12-22T11:53:40;9.20;99.90
4647;DHT22;2336;47.822;7.564;2023-12-22T11:56:07;9.20;99.90
4647;DHT22;2336;47.822;7.564;2023-12-22T11:58:36;9.20;99.90
4647;DHT22;2336;47.822;7.564;2023-12-22T12:01:05;9.20;99.90
4647;DHT22;2336;47.822;7.564;2023-12-22T12:03:36;9.20;99.90
4647;DHT22;2336;47.822;7.564;2023-12-22T12:06:17;9.30;99.90
4647;DHT22;2336;47.822;7.564;2023-12-22T12:08:48;9.30;99.90
4647;DHT22;2336;47.822;7.564;2023-12-22T12:11:16;9.30;99.90
4647;DHT22;2336;47.822;7.564;2023-12-22T12:13:44;9.20;99.90
4647;DHT22;2336;47.822;7.564;2023-12-22T12:16:11;9.20;99.90
4647;DHT22;2336;47.822;7.564;2023-12-22T12:18:39;9.30;99.90
4647;DHT22;2336;47.822;7.564;2023-12-22T12:21:07;9.20;99.90
4647;DHT22;2336;47.822;7.564;2023-12-22T12:23:34;9.20;99.90
4647;DHT22;2336;47.822;7.564;2023-12-22T12:26:01;9.20;99.90
4647;DHT22;2336;47.822;7.564;2023-12-22T12:28:31;9.20;99.90
4647;DHT22;2336;47.822;7.564;2023-12-22T12:30:59;9.30;99.90
4647;DHT22;2336;47.822;7.564;2023-12-22T12:33:26;9.30;99.90
4647;DHT22;2336;47.822;7.564;2023-12-22T12:35:58;9.30;99.90
4647;DHT22;2336;47.822;7.564;2023-12-22T12:38:36;9.30;99.90
4647;DHT22;2336;47.822;7.564;2023-12-22T12:41:04;9.30;99.90
4647;DHT22;2336;47.822;7.564;2023-12-22T12:43:31;9.40;99.90
4647;DHT22;2336;47.822;7.564;2023-12-22T12:46:03;9.50;99.90
4647;DHT22;2336;47.822;7.564;2023-12-22T12:48:31;9.50;99.90
4647;DHT22;2336;47.822;7.564;2023-12-22T12:51:03;9.40;99.90
4647;DHT22;2336;47.822;7.564;2023-12-22T12:53:31;9.50;99.90
4647;DHT22;2336;47.822;7.564;2023-12-22T12:55:58;9.40;99.90
4647;DHT22;2336;47.822;7.564;2023-12-22T12:58:29;9.40;99.90
4647;DHT22;2336;47.822;7.564;2023-12-22T13:01:07;9.50;99.90
4647;DHT22;2336;47.822;7.564;2023-12-22T13:03:51;9.40;99.90
4647;DHT22;2336;47.822;7.564;2023-12-22T13:06:19;9.40;99.90
4647;DHT22;2336;47.822;7.564;2023-12-22T13:08:49;9.40;99.90
4647;DHT22;2336;47.822;7.564;2023-12-22T13:11:20;9.40;99.90
4647;DHT22;2336;47.822;7.564;2023-12-22T13:13:48;9.40;99.90
4647;DHT22;2336;47.822;7.564;2023-12-22T13:16:18;9.40;99.90
4647;DHT22;2336;47.822;7.564;2023-12-22T13:18:46;9.40;99.90
4647;DHT22;2336;47.822;7.564;2023-12-22T13:21:13;9.40;99.90
4647;DHT22;2336;47.822;7.564;2023-12-22T13:23:41;9.40;99.90
4647;DHT22;2336;47.822;7.564;2023-12-22T13:26:17;9.40;99.90
4647;DHT22;2336;47.822;7.564;2023-12-22T13:28:44;9.40;99.90
4647;DHT22;2336;47.822;7.564;2023-12-22T13:31:12;9.30;99.90
4647;DHT22;2336;47.822;7.564;2023-12-22T13:33:40;9.40;99.90
4647;DHT22;2336;47.822;7.564;2023-12-22T13:36:07;9.40;99.90
4647;DHT22;2336;47.822;7.564;2023-12-22T13:38:35;9.40;99.90
4647;DHT22;2336;47.822;7.564;2023-12-22T13:41:03;9.40;99.90
4647;DHT22;2336;47.822;7.564;2023-12-22T13:43:31;9.30;99.90
4647;DHT22;2336;47.822;7.564;2023-12-22T13:45:58;9.30;99.90
4647;DHT22;2336;47.822;7.564;2023-12-22T13:48:25;9.30;99.90
4647;DHT22;2336;47.822;7.564;2023-12-22T13:50:56;9.30;99.90
4647;DHT22;2336;47.822;7.564;2023-12-22T13:53:24;9.30;99.90
4647;DHT22;2336;47.822;7.564;2023-12-22T13:55:55;9.30;99.90
4647;DHT22;2336;47.822;7.564;2023-12-22T13:58:23;9.30;99.90
4647;DHT22;2336;47.822;7.564;2023-12-22T14:00:50;9.30;99.90
4647;DHT22;2336;47.822;7.564;2023-12-22T14:03:18;9.30;99.90
4647;DHT22;2336;47.822;7.564;2023-12-22T14:05:47;9.30;99.90
4647;DHT22;2336;47.822;7.564;2023-12-22T14:08:14;9.20;99.90
4647;DHT22;2336;47.822;7.564;2023-12-22T14:10:45;9.30;99.90
4647;DHT22;2336;47.822;7.564;2023-12-22T14:13:12;9.20;99.90
4647;DHT22;2336;47.822;7.564;2023-12-22T14:15:41;9.20;99.90
4647;DHT22;2336;47.822;7.564;2023-12-22T14:18:08;9.20;99.90
4647;DHT22;2336;47.822;7.564;2023-12-22T14:20:35;9.20;99.90
4647;DHT22;2336;47.822;7.564;2023-12-22T14:23:01;9.20;99.90
4647;DHT22;2336;47.822;7.564;2023-12-22T14:25:29;9.30;99.90
4647;DHT22;2336;47.822;7.564;2023-12-22T14:27:57;9.30;99.90
4647;DHT22;2336;47.822;7.564;2023-12-22T14:30:24;9.30;99.90
4647;DHT22;2336;47.822;7.564;2023-12-22T14:32:52;9.30;99.90
4647;DHT22;2336;47.822;7.564;2023-12-22T14:35:19;9.30;99.90
4647;DHT22;2336;47.822;7.564;2023-12-22T14:37:46;9.30;99.90
4647;DHT22;2336;47.822;7.564;2023-12-22T14:40:13;9.30;99.90
4647;DHT22;2336;47.822;7.564;2023-12-22T14:42:40;9.30;99.90
4647;DHT22;2336;47.822;7.564;2023-12-22T14:45:07;9.30;99.90
4647;DHT22;2336;47.822;7.564;2023-12-22T14:47:34;9.40;99.90
4647;DHT22;2336;47.822;7.564;2023-12-22T14:50:03;9.30;99.90
4647;DHT22;2336;47.822;7.564;2023-12-22T14:52:30;9.40;99.90
4647;DHT22;2336;47.822;7.564;2023-12-22T14:54:57;9.40;99.90
4647;DHT22;2336;47.822;7.564;2023-12-22T14:57:24;9.40;99.90
4647;DHT22;2336;47.822;7.564;2023-12-22T14:59:51;9.40;99.90
4647;DHT22;2336;47.822;7.564;2023-12-22T15:02:18;9.40;99.90
4647;DHT22;2336;47.822;7.564;2023-12-22T15:04:45;9.40;99.90
4647;DHT22;2336;47.822;7.564;2023-12-22T15:07:15;9.40;99.90
4647;DHT22;2336;47.822;7.564;2023-12-22T15:09:43;9.40;99.90
4647;DHT22;2336;47.822;7.564;2023-12-22T15:12:10;9.30;99.90
4647;DHT22;2336;47.822;7.564;2023-12-22T15:14:36;9.30;99.90
4647;DHT22;2336;47.822;7.564;2023-12-22T15:17:03;9.30;99.90
4647;DHT22;2336;47.822;7.564;2023-12-22T15:19:30;9.30;99.90
4647;DHT22;2336;47.822;7.564;2023-12-22T15:21:57;9.20;99.90
4647;DHT22;2336;47.822;7.564;2023-12-22T15:24:25;9.20;99.90
4647;DHT22;2336;47.822;7.564;2023-12-22T15:26:54;9.10;99.90
4647;DHT22;2336;47.822;7.564;2023-12-22T15:29:21;9.10;99.90
4647;DHT22;2336;47.822;7.564;2023-12-22T15:31:48;9.10;99.90
4647;DHT22;2336;47.822;7.564;2023-12-22T15:34:16;9.10;99.90
4647;DHT22;2336;47.822;7.564;2023-12-22T15:36:43;9.10;99.90
4647;DHT22;2336;47.822;7.564;2023-12-22T15:39:11;9.10;99.90
4647;DHT22;2336;47.822;7.564;2023-12-22T15:41:39;9.10;99.90
4647;DHT22;2336;47.822;7.564;2023-12-22T15:44:06;9.00;99.90
4647;DHT22;2336;47.822;7.564;2023-12-22T15:46:33;9.00;99.90
4647;DHT22;2336;47.822;7.564;2023-12-22T15:49:00;9.00;99.90
4647;DHT22;2336;47.822;7.564;2023-12-22T15:51:26;9.00;99.90
4647;DHT22;2336;47.822;7.564;2023-12-22T15:53:53;9.00;99.90
4647;DHT22;2336;47.822;7.564;2023-12-22T15:56:20;9.00;99.90
4647;DHT22;2336;47.822;7.564;2023-12-22T15:58:48;9.00;99.90
4647;DHT22;2336;47.822;7.564;2023-12-22T16:01:15;9.00;99.90
4647;DHT22;2336;47.822;7.564;2023-12-22T16:03:42;9.00;99.90
4647;DHT22;2336;47.822;7.564;2023-12-22T16:06:13;8.90;99.90
4647;DHT22;2336;47.822;7.564;2023-12-22T16:08:39;8.90;99.90
4647;DHT22;2336;47.822;7.564;2023-12-22T16:11:06;8.90;99.90
4647;DHT22;2336;47.822;7.564;2023-12-22T16:13:33;8.90;99.90
4647;DHT22;2336;47.822;7.564;2023-12-22T16:16:01;8.90;99.90
4647;DHT22;2336;47.822;7.564;2023-12-22T16:18:28;8.90;99.90
4647;DHT22;2336;47.822;7.564;2023-12-22T16:20:55;8.90;99.90